Hovedside
METAR-TAF:

METAR-TAF

Lufthavner :

N'djili lufthavn

Kinshasa, Kongo

breddegrad: 04-23S, lengdegrad: 015-26E, høyde over havet: 309 m

Gjeldene værobservasjon

Denne rapporten ble laget for 1 time og 2 minutter siden, klokken 15:00 UTC
Vind 8 kt fra Sør
Temperatur 29°C
Luftfuktighet 52%
Trykk 1013 hPa
Sikt: 7000 m
Spredte skyer i en høyde av 2200 ft

METAR: FZAA 191500Z 18008KT 7000 SCT022 29/18 Q1013 NOSIG

Tid: 17:02 (16:02 UTC)

Varsel

Denne rapporten ble laget for 11 timer og 2 minutter siden, klokken 05:00 UTC
Varsel gyldig fra 19. klokken 06 UTC til 20. klokken 12 UTC
Vind 6 kt fra Vest-sørvest
Sikt: 3000 m
dis
Blir
fra 19. klokken 08 UTC til 19. klokken 10 UTC
Sikt: 6000 m
Få skyer i en høyde av 2000 ft
Sannsynlighet 30%
fra 20. klokken 06 UTC til 20. klokken 09 UTC
Sikt: 4000 m
dis

TAF: FZAA 190500Z 1906/2012 25006KT 3000 BR BKN0016 BECMG 1908/1910 6000 NSW FEW020 PROB30 2006/2009 4000 BR

Værobservasjoner og værvarsel for over 4000 flyplasser (METAR- og TAF-rapporter).

Tilgjengelige stasjoner er representert av de røde og gule prikkene på kartet.

Hold musepekeren over prikken for å se navnet på stasjonen.

Klikk så for å se værobservasjoner og -varsler.

For å forandre kartet kan du klikke på den grønne knappen med svart kryss for å zoome inn, på den grønne knappen med strek for å zoome ut, eller på de grønne pilene for å se tilstøtende kart.


METAR-TAF: